sensor_id;sensor_type;location;lat;lon;timestamp;temperature;humidity
50690;DHT22;54375;48.298;11.238;2022-10-16T00:00:17;11.50;92.20
50690;DHT22;54375;48.298;11.238;2022-10-16T00:03:18;11.50;92.50
50690;DHT22;54375;48.298;11.238;2022-10-16T00:06:20;11.50;92.80
50690;DHT22;54375;48.298;11.238;2022-10-16T00:09:23;11.50;92.70
50690;DHT22;54375;48.298;11.238;2022-10-16T00:12:23;11.50;93.40
50690;DHT22;54375;48.298;11.238;2022-10-16T00:15:24;11.50;93.40
50690;DHT22;54375;48.298;11.238;2022-10-16T00:18:25;11.50;93.20
50690;DHT22;54375;48.298;11.238;2022-10-16T00:21:27;11.50;93.10
50690;DHT22;54375;48.298;11.238;2022-10-16T00:24:30;11.50;93.00
50690;DHT22;54375;48.298;11.238;2022-10-16T00:27:31;11.50;93.30
50690;DHT22;54375;48.298;11.238;2022-10-16T00:30:32;11.50;93.20
50690;DHT22;54375;48.298;11.238;2022-10-16T00:33:33;11.50;93.30
50690;DHT22;54375;48.298;11.238;2022-10-16T00:36:35;11.50;93.50
50690;DHT22;54375;48.298;11.238;2022-10-16T00:39:37;11.50;93.50
50690;DHT22;54375;48.298;11.238;2022-10-16T00:42:38;11.60;93.50
50690;DHT22;54375;48.298;11.238;2022-10-16T00:45:39;11.60;93.60
50690;DHT22;54375;48.298;11.238;2022-10-16T00:48:41;11.60;93.60
50690;DHT22;54375;48.298;11.238;2022-10-16T00:51:45;11.60;93.50
50690;DHT22;54375;48.298;11.238;2022-10-16T00:54:49;11.60;93.40
50690;DHT22;54375;48.298;11.238;2022-10-16T00:57:51;11.60;93.40
50690;DHT22;54375;48.298;11.238;2022-10-16T01:00:52;11.60;93.40
50690;DHT22;54375;48.298;11.238;2022-10-16T01:03:52;11.50;93.50
50690;DHT22;54375;48.298;11.238;2022-10-16T01:07:03;11.60;93.50
50690;DHT22;54375;48.298;11.238;2022-10-16T01:10:18;11.60;93.40
50690;DHT22;54375;48.298;11.238;2022-10-16T01:13:25;11.50;93.20
50690;DHT22;54375;48.298;11.238;2022-10-16T01:16:32;11.50;93.20
50690;DHT22;54375;48.298;11.238;2022-10-16T01:20:01;11.50;93.10
50690;DHT22;54375;48.298;11.238;2022-10-16T01:23:09;11.40;93.10
50690;DHT22;54375;48.298;11.238;2022-10-16T01:26:35;11.40;93.10
50690;DHT22;54375;48.298;11.238;2022-10-16T01:29:42;11.40;93.40
50690;DHT22;54375;48.298;11.238;2022-10-16T01:32:50;11.40;93.10
50690;DHT22;54375;48.298;11.238;2022-10-16T01:35:54;11.40;93.10
50690;DHT22;54375;48.298;11.238;2022-10-16T01:39:00;11.30;93.00
50690;DHT22;54375;48.298;11.238;2022-10-16T01:42:08;11.40;92.90
50690;DHT22;54375;48.298;11.238;2022-10-16T01:45:14;11.30;92.90
50690;DHT22;54375;48.298;11.238;2022-10-16T01:48:18;11.40;93.00
50690;DHT22;54375;48.298;11.238;2022-10-16T01:51:20;11.40;93.30
50690;DHT22;54375;48.298;11.238;2022-10-16T01:54:23;11.30;93.10
50690;DHT22;54375;48.298;11.238;2022-10-16T01:57:26;11.30;93.10
50690;DHT22;54375;48.298;11.238;2022-10-16T02:00:30;11.30;93.20
50690;DHT22;54375;48.298;11.238;2022-10-16T02:03:33;11.30;93.40
50690;DHT22;54375;48.298;11.238;2022-10-16T02:06:35;11.40;93.70
50690;DHT22;54375;48.298;11.238;2022-10-16T02:09:37;11.40;93.90
50690;DHT22;54375;48.298;11.238;2022-10-16T02:12:39;11.40;93.90
50690;DHT22;54375;48.298;11.238;2022-10-16T02:15:42;11.40;94.00
50690;DHT22;54375;48.298;11.238;2022-10-16T02:18:43;11.40;94.00
50690;DHT22;54375;48.298;11.238;2022-10-16T02:21:47;11.40;94.00
50690;DHT22;54375;48.298;11.238;2022-10-16T02:24:53;11.40;93.90
50690;DHT22;54375;48.298;11.238;2022-10-16T02:27:57;11.40;93.90
50690;DHT22;54375;48.298;11.238;2022-10-16T02:31:04;11.30;93.90
50690;DHT22;54375;48.298;11.238;2022-10-16T02:34:06;11.30;94.10
50690;DHT22;54375;48.298;11.238;2022-10-16T02:37:08;11.30;94.10
50690;DHT22;54375;48.298;11.238;2022-10-16T02:40:10;11.30;94.10
50690;DHT22;54375;48.298;11.238;2022-10-16T02:43:12;11.30;94.20
50690;DHT22;54375;48.298;11.238;2022-10-16T02:46:14;11.30;94.20
50690;DHT22;54375;48.298;11.238;2022-10-16T02:49:15;11.30;94.10
50690;DHT22;54375;48.298;11.238;2022-10-16T02:52:15;11.20;94.00
50690;DHT22;54375;48.298;11.238;2022-10-16T02:55:17;11.20;93.90
50690;DHT22;54375;48.298;11.238;2022-10-16T02:58:18;11.10;93.80
50690;DHT22;54375;48.298;11.238;2022-10-16T03:01:20;11.10;93.80
50690;DHT22;54375;48.298;11.238;2022-10-16T03:04:22;11.10;93.80
50690;DHT22;54375;48.298;11.238;2022-10-16T03:07:23;11.10;93.80
50690;DHT22;54375;48.298;11.238;2022-10-16T03:10:24;11.10;93.80
50690;DHT22;54375;48.298;11.238;2022-10-16T03:13:24;11.10;93.80
50690;DHT22;54375;48.298;11.238;2022-10-16T03:16:27;11.20;94.50
50690;DHT22;54375;48.298;11.238;2022-10-16T03:19:28;11.20;94.40
50690;DHT22;54375;48.298;11.238;2022-10-16T03:22:29;11.20;94.20
50690;DHT22;54375;48.298;11.238;2022-10-16T03:25:30;11.30;94.40
50690;DHT22;54375;48.298;11.238;2022-10-16T03:28:30;11.30;94.70
50690;DHT22;54375;48.298;11.238;2022-10-16T03:31:33;11.40;94.50
50690;DHT22;54375;48.298;11.238;2022-10-16T03:34:34;11.40;94.50
50690;DHT22;54375;48.298;11.238;2022-10-16T03:37:34;11.40;94.50
50690;DHT22;54375;48.298;11.238;2022-10-16T03:40:35;11.50;94.50
50690;DHT22;54375;48.298;11.238;2022-10-16T03:43:36;11.50;94.40
50690;DHT22;54375;48.298;11.238;2022-10-16T03:46:38;11.60;94.40
50690;DHT22;54375;48.298;11.238;2022-10-16T03:49:39;11.70;94.50
50690;DHT22;54375;48.298;11.238;2022-10-16T03:52:39;11.70;94.40
50690;DHT22;54375;48.298;11.238;2022-10-16T03:55:41;11.70;94.40
50690;DHT22;54375;48.298;11.238;2022-10-16T03:58:42;11.70;94.30
50690;DHT22;54375;48.298;11.238;2022-10-16T04:01:44;11.70;94.30
50690;DHT22;54375;48.298;11.238;2022-10-16T04:04:45;11.70;94.60
50690;DHT22;54375;48.298;11.238;2022-10-16T04:07:46;11.70;94.10
50690;DHT22;54375;48.298;11.238;2022-10-16T04:10:46;11.70;94.10
50690;DHT22;54375;48.298;11.238;2022-10-16T04:13:47;11.80;94.10
50690;DHT22;54375;48.298;11.238;2022-10-16T04:16:50;11.80;94.00
50690;DHT22;54375;48.298;11.238;2022-10-16T04:19:50;11.80;94.10
50690;DHT22;54375;48.298;11.238;2022-10-16T04:22:51;11.70;94.00
50690;DHT22;54375;48.298;11.238;2022-10-16T04:25:52;11.70;94.00
50690;DHT22;54375;48.298;11.238;2022-10-16T04:28:53;11.80;94.00
50690;DHT22;54375;48.298;11.238;2022-10-16T04:31:55;11.80;94.10
50690;DHT22;54375;48.298;11.238;2022-10-16T04:34:55;11.80;94.00
50690;DHT22;54375;48.298;11.238;2022-10-16T04:37:57;11.80;94.00
50690;DHT22;54375;48.298;11.238;2022-10-16T04:40:58;11.90;94.00
50690;DHT22;54375;48.298;11.238;2022-10-16T04:43:58;11.90;93.90
50690;DHT22;54375;48.298;11.238;2022-10-16T04:47:01;11.90;93.80
50690;DHT22;54375;48.298;11.238;2022-10-16T04:50:01;11.90;93.90
50690;DHT22;54375;48.298;11.238;2022-10-16T04:53:02;12.00;94.00
50690;DHT22;54375;48.298;11.238;2022-10-16T04:56:03;11.90;94.00
50690;DHT22;54375;48.298;11.238;2022-10-16T04:59:04;12.00;94.00
50690;DHT22;54375;48.298;11.238;2022-10-16T05:02:06;12.00;93.90
50690;DHT22;54375;48.298;11.238;2022-10-16T05:05:07;12.00;93.80
50690;DHT22;54375;48.298;11.238;2022-10-16T05:08:08;12.00;93.80
50690;DHT22;54375;48.298;11.238;2022-10-16T05:11:09;12.00;93.70
50690;DHT22;54375;48.298;11.238;2022-10-16T05:14:09;11.90;93.60
50690;DHT22;54375;48.298;11.238;2022-10-16T05:17:12;11.90;93.50
50690;DHT22;54375;48.298;11.238;2022-10-16T05:20:12;11.90;93.50
50690;DHT22;54375;48.298;11.238;2022-10-16T05:23:13;11.80;93.30
50690;DHT22;54375;48.298;11.238;2022-10-16T05:26:14;11.80;93.30
50690;DHT22;54375;48.298;11.238;2022-10-16T05:29:15;11.70;93.30
50690;DHT22;54375;48.298;11.238;2022-10-16T05:32:17;11.70;93.40
50690;DHT22;54375;48.298;11.238;2022-10-16T05:35:19;11.60;93.40
50690;DHT22;54375;48.298;11.238;2022-10-16T05:38:20;11.60;93.30
50690;DHT22;54375;48.298;11.238;2022-10-16T05:41:20;11.50;93.20
50690;DHT22;54375;48.298;11.238;2022-10-16T05:44:21;11.50;93.10
50690;DHT22;54375;48.298;11.238;2022-10-16T05:47:23;11.50;93.10
50690;DHT22;54375;48.298;11.238;2022-10-16T05:50:24;11.40;93.10
50690;DHT22;54375;48.298;11.238;2022-10-16T05:53:25;11.40;93.10
50690;DHT22;54375;48.298;11.238;2022-10-16T05:56:25;11.30;93.00
50690;DHT22;54375;48.298;11.238;2022-10-16T05:59:26;11.30;93.00
50690;DHT22;54375;48.298;11.238;2022-10-16T06:02:28;11.30;93.60
50690;DHT22;54375;48.298;11.238;2022-10-16T06:05:29;11.30;93.70
50690;DHT22;54375;48.298;11.238;2022-10-16T06:08:31;11.20;93.60
50690;DHT22;54375;48.298;11.238;2022-10-16T06:11:33;11.20;93.60
50690;DHT22;54375;48.298;11.238;2022-10-16T06:14:34;11.20;93.60
50690;DHT22;54375;48.298;11.238;2022-10-16T06:17:36;11.20;93.50
50690;DHT22;54375;48.298;11.238;2022-10-16T06:20:37;11.20;93.40
50690;DHT22;54375;48.298;11.238;2022-10-16T06:23:38;11.10;93.40
50690;DHT22;54375;48.298;11.238;2022-10-16T06:26:38;11.10;93.40
50690;DHT22;54375;48.298;11.238;2022-10-16T06:29:39;11.10;93.50
50690;DHT22;54375;48.298;11.238;2022-10-16T06:32:41;11.10;93.40
50690;DHT22;54375;48.298;11.238;2022-10-16T06:35:42;11.10;93.40
50690;DHT22;54375;48.298;11.238;2022-10-16T06:38:43;11.10;93.30
50690;DHT22;54375;48.298;11.238;2022-10-16T06:41:44;11.10;93.40
50690;DHT22;54375;48.298;11.238;2022-10-16T06:44:45;11.10;93.40
50690;DHT22;54375;48.298;11.238;2022-10-16T06:47:47;11.10;93.30
50690;DHT22;54375;48.298;11.238;2022-10-16T06:50:58;11.10;93.30
50690;DHT22;54375;48.298;11.238;2022-10-16T06:53:59;11.10;93.30
50690;DHT22;54375;48.298;11.238;2022-10-16T06:57:00;11.20;93.40
50690;DHT22;54375;48.298;11.238;2022-10-16T07:00:01;11.20;93.40
50690;DHT22;54375;48.298;11.238;2022-10-16T07:03:03;11.30;93.40
50690;DHT22;54375;48.298;11.238;2022-10-16T07:06:05;11.40;93.30
50690;DHT22;54375;48.298;11.238;2022-10-16T07:09:09;11.50;93.30
50690;DHT22;54375;48.298;11.238;2022-10-16T07:12:10;11.60;93.40
50690;DHT22;54375;48.298;11.238;2022-10-16T07:15:11;11.70;93.60
50690;DHT22;54375;48.298;11.238;2022-10-16T07:18:13;12.00;93.70
50690;DHT22;54375;48.298;11.238;2022-10-16T07:21:15;12.30;93.50
50690;DHT22;54375;48.298;11.238;2022-10-16T07:24:16;12.60;93.40
50690;DHT22;54375;48.298;11.238;2022-10-16T07:27:17;12.90;93.20
50690;DHT22;54375;48.298;11.238;2022-10-16T07:30:18;13.20;92.90
50690;DHT22;54375;48.298;11.238;2022-10-16T07:33:20;13.40;92.20
50690;DHT22;54375;48.298;11.238;2022-10-16T07:36:21;13.80;92.10
50690;DHT22;54375;48.298;11.238;2022-10-16T07:39:22;14.10;92.10
50690;DHT22;54375;48.298;11.238;2022-10-16T07:42:23;14.40;91.30
50690;DHT22;54375;48.298;11.238;2022-10-16T07:45:23;14.70;91.10
50690;DHT22;54375;48.298;11.238;2022-10-16T07:48:27;15.00;90.00
50690;DHT22;54375;48.298;11.238;2022-10-16T07:51:28;15.20;89.60
50690;DHT22;54375;48.298;11.238;2022-10-16T07:54:29;15.50;88.10
50690;DHT22;54375;48.298;11.238;2022-10-16T07:57:30;15.80;87.10
50690;DHT22;54375;48.298;11.238;2022-10-16T08:00:31;16.10;84.80
50690;DHT22;54375;48.298;11.238;2022-10-16T08:03:33;16.40;84.80
50690;DHT22;54375;48.298;11.238;2022-10-16T08:06:35;16.70;85.40
50690;DHT22;54375;48.298;11.238;2022-10-16T08:09:36;17.10;84.60
50690;DHT22;54375;48.298;11.238;2022-10-16T08:12:37;17.50;83.60
50690;DHT22;54375;48.298;11.238;2022-10-16T08:15:38;17.80;80.60
50690;DHT22;54375;48.298;11.238;2022-10-16T08:18:40;18.10;79.60
50690;DHT22;54375;48.298;11.238;2022-10-16T08:21:41;18.30;77.90
50690;DHT22;54375;48.298;11.238;2022-10-16T08:24:42;18.60;77.20
50690;DHT22;54375;48.298;11.238;2022-10-16T08:27:43;18.80;74.20
50690;DHT22;54375;48.298;11.238;2022-10-16T08:30:43;19.00;75.40
50690;DHT22;54375;48.298;11.238;2022-10-16T08:33:46;19.30;73.70
50690;DHT22;54375;48.298;11.238;2022-10-16T08:36:46;19.60;73.70
50690;DHT22;54375;48.298;11.238;2022-10-16T08:39:47;19.80;72.30
50690;DHT22;54375;48.298;11.238;2022-10-16T08:43:01;20.00;71.50
50690;DHT22;54375;48.298;11.238;2022-10-16T08:46:16;20.20;71.50
50690;DHT22;54375;48.298;11.238;2022-10-16T08:49:21;20.40;69.80
50690;DHT22;54375;48.298;11.238;2022-10-16T08:52:22;20.60;69.50
50690;DHT22;54375;48.298;11.238;2022-10-16T08:55:33;20.80;69.00
50690;DHT22;54375;48.298;11.238;2022-10-16T08:58:34;21.10;68.30
50690;DHT22;54375;48.298;11.238;2022-10-16T09:01:38;21.30;68.10
50690;DHT22;54375;48.298;11.238;2022-10-16T09:05:15;21.60;67.20
50690;DHT22;54375;48.298;11.238;2022-10-16T09:08:24;21.90;66.70
50690;DHT22;54375;48.298;11.238;2022-10-16T09:11:38;22.10;65.90
50690;DHT22;54375;48.298;11.238;2022-10-16T09:14:52;22.40;64.10
50690;DHT22;54375;48.298;11.238;2022-10-16T09:18:00;22.60;61.80
50690;DHT22;54375;48.298;11.238;2022-10-16T09:21:10;22.60;62.10
50690;DHT22;54375;48.298;11.238;2022-10-16T09:24:15;22.80;62.10
50690;DHT22;54375;48.298;11.238;2022-10-16T09:27:16;23.00;61.00
50690;DHT22;54375;48.298;11.238;2022-10-16T09:30:18;23.20;59.40
50690;DHT22;54375;48.298;11.238;2022-10-16T09:33:22;23.30;59.80
50690;DHT22;54375;48.298;11.238;2022-10-16T09:36:26;23.50;59.40
50690;DHT22;54375;48.298;11.238;2022-10-16T09:39:28;23.60;59.40
50690;DHT22;54375;48.298;11.238;2022-10-16T09:42:31;23.70;59.40
50690;DHT22;54375;48.298;11.238;2022-10-16T09:45:32;23.90;59.00
50690;DHT22;54375;48.298;11.238;2022-10-16T09:48:37;24.10;58.60
50690;DHT22;54375;48.298;11.238;2022-10-16T09:51:39;24.20;56.70
50690;DHT22;54375;48.298;11.238;2022-10-16T09:54:49;24.40;56.60
50690;DHT22;54375;48.298;11.238;2022-10-16T09:57:50;24.50;55.40
50690;DHT22;54375;48.298;11.238;2022-10-16T10:00:53;24.60;54.60
50690;DHT22;54375;48.298;11.238;2022-10-16T10:03:56;24.70;53.10
50690;DHT22;54375;48.298;11.238;2022-10-16T10:06:58;24.60;50.90
50690;DHT22;54375;48.298;11.238;2022-10-16T10:10:00;24.20;52.80
50690;DHT22;54375;48.298;11.238;2022-10-16T10:13:01;24.50;53.90
50690;DHT22;54375;48.298;11.238;2022-10-16T10:16:02;24.90;53.20
50690;DHT22;54375;48.298;11.238;2022-10-16T10:19:03;25.30;53.00
50690;DHT22;54375;48.298;11.238;2022-10-16T10:22:16;25.80;51.80
50690;DHT22;54375;48.298;11.238;2022-10-16T10:28:52;25.80;48.70
50690;DHT22;54375;48.298;11.238;2022-10-16T10:32:02;25.60;49.60
50690;DHT22;54375;48.298;11.238;2022-10-16T10:35:14;25.80;50.30
50690;DHT22;54375;48.298;11.238;2022-10-16T10:38:27;25.90;50.70
50690;DHT22;54375;48.298;11.238;2022-10-16T10:42:05;26.00;49.90
50690;DHT22;54375;48.298;11.238;2022-10-16T10:45:18;26.00;49.50
50690;DHT22;54375;48.298;11.238;2022-10-16T10:48:32;26.10;49.80
50690;DHT22;54375;48.298;11.238;2022-10-16T10:51:40;26.30;49.70
50690;DHT22;54375;48.298;11.238;2022-10-16T10:54:50;26.50;49.10
50690;DHT22;54375;48.298;11.238;2022-10-16T10:58:12;26.60;48.30
50690;DHT22;54375;48.298;11.238;2022-10-16T11:01:16;26.80;48.20
50690;DHT22;54375;48.298;11.238;2022-10-16T11:07:51;27.00;48.70
50690;DHT22;54375;48.298;11.238;2022-10-16T11:10:58;27.20;48.40
50690;DHT22;54375;48.298;11.238;2022-10-16T11:14:04;27.30;47.30
50690;DHT22;54375;48.298;11.238;2022-10-16T11:17:10;27.10;46.50
50690;DHT22;54375;48.298;11.238;2022-10-16T11:20:16;27.20;47.30
50690;DHT22;54375;48.298;11.238;2022-10-16T11:23:23;27.20;45.80
50690;DHT22;54375;48.298;11.238;2022-10-16T11:26:28;26.80;45.90
50690;DHT22;54375;48.298;11.238;2022-10-16T11:29:32;26.80;46.40
50690;DHT22;54375;48.298;11.238;2022-10-16T11:32:43;26.90;47.20
50690;DHT22;54375;48.298;11.238;2022-10-16T11:35:51;27.10;47.30
50690;DHT22;54375;48.298;11.238;2022-10-16T11:39:00;27.50;46.70
50690;DHT22;54375;48.298;11.238;2022-10-16T11:42:09;27.60;43.60
50690;DHT22;54375;48.298;11.238;2022-10-16T11:45:21;27.60;44.80
50690;DHT22;54375;48.298;11.238;2022-10-16T11:48:27;27.60;44.80
50690;DHT22;54375;48.298;11.238;2022-10-16T11:51:35;27.70;45.40
50690;DHT22;54375;48.298;11.238;2022-10-16T11:54:41;27.90;45.30
50690;DHT22;54375;48.298;11.238;2022-10-16T11:57:49;27.90;44.80
50690;DHT22;54375;48.298;11.238;2022-10-16T12:00:57;27.80;44.80
50690;DHT22;54375;48.298;11.238;2022-10-16T12:04:13;27.70;46.40
50690;DHT22;54375;48.298;11.238;2022-10-16T12:07:17;27.80;45.10
50690;DHT22;54375;48.298;11.238;2022-10-16T12:10:22;28.00;45.20
50690;DHT22;54375;48.298;11.238;2022-10-16T12:13:30;28.30;45.10
50690;DHT22;54375;48.298;11.238;2022-10-16T12:16:32;28.50;43.20
50690;DHT22;54375;48.298;11.238;2022-10-16T12:19:32;28.50;43.50
50690;DHT22;54375;48.298;11.238;2022-10-16T12:22:33;28.60;42.40
50690;DHT22;54375;48.298;11.238;2022-10-16T12:25:36;28.60;43.00
50690;DHT22;54375;48.298;11.238;2022-10-16T12:28:38;28.50;42.90
50690;DHT22;54375;48.298;11.238;2022-10-16T12:31:44;28.50;43.10
50690;DHT22;54375;48.298;11.238;2022-10-16T12:34:47;28.50;43.00
50690;DHT22;54375;48.298;11.238;2022-10-16T12:37:49;28.50;42.40
50690;DHT22;54375;48.298;11.238;2022-10-16T12:40:58;28.60;42.90
50690;DHT22;54375;48.298;11.238;2022-10-16T12:44:01;28.70;43.10
50690;DHT22;54375;48.298;11.238;2022-10-16T12:47:02;28.80;42.90
50690;DHT22;54375;48.298;11.238;2022-10-16T12:50:22;28.90;42.40
50690;DHT22;54375;48.298;11.238;2022-10-16T12:53:25;28.90;42.50
50690;DHT22;54375;48.298;11.238;2022-10-16T12:56:35;29.00;43.40
50690;DHT22;54375;48.298;11.238;2022-10-16T12:59:40;29.00;42.90
50690;DHT22;54375;48.298;11.238;2022-10-16T13:06:41;28.60;41.60
50690;DHT22;54375;48.298;11.238;2022-10-16T13:09:56;28.60;42.40
50690;DHT22;54375;48.298;11.238;2022-10-16T13:13:18;28.70;42.40
50690;DHT22;54375;48.298;11.238;2022-10-16T13:16:27;28.70;42.40
50690;DHT22;54375;48.298;11.238;2022-10-16T13:19:35;28.70;43.00
50690;DHT22;54375;48.298;11.238;2022-10-16T13:22:45;28.50;40.40
50690;DHT22;54375;48.298;11.238;2022-10-16T13:25:59;28.30;40.30
50690;DHT22;54375;48.298;11.238;2022-10-16T13:29:03;27.90;41.30
50690;DHT22;54375;48.298;11.238;2022-10-16T13:32:10;27.30;38.60
50690;DHT22;54375;48.298;11.238;2022-10-16T13:35:21;26.90;40.70
50690;DHT22;54375;48.298;11.238;2022-10-16T13:38:23;26.70;40.10
50690;DHT22;54375;48.298;11.238;2022-10-16T13:41:25;26.50;40.20
50690;DHT22;54375;48.298;11.238;2022-10-16T13:44:25;26.50;41.30
50690;DHT22;54375;48.298;11.238;2022-10-16T13:47:29;26.30;41.00
50690;DHT22;54375;48.298;11.238;2022-10-16T13:50:30;26.20;42.80
50690;DHT22;54375;48.298;11.238;2022-10-16T13:53:31;26.30;41.70
50690;DHT22;54375;48.298;11.238;2022-10-16T13:56:32;26.10;40.20
50690;DHT22;54375;48.298;11.238;2022-10-16T13:59:35;26.10;41.40
50690;DHT22;54375;48.298;11.238;2022-10-16T14:02:39;26.10;41.40
50690;DHT22;54375;48.298;11.238;2022-10-16T14:05:43;26.30;42.70
50690;DHT22;54375;48.298;11.238;2022-10-16T14:08:51;26.50;43.00
50690;DHT22;54375;48.298;11.238;2022-10-16T14:11:56;26.60;42.00
50690;DHT22;54375;48.298;11.238;2022-10-16T14:14:58;26.70;40.70
50690;DHT22;54375;48.298;11.238;2022-10-16T14:18:02;26.40;40.70
50690;DHT22;54375;48.298;11.238;2022-10-16T14:21:04;26.10;41.90
50690;DHT22;54375;48.298;11.238;2022-10-16T14:24:11;26.00;42.10
50690;DHT22;54375;48.298;11.238;2022-10-16T14:27:25;25.70;42.50
50690;DHT22;54375;48.298;11.238;2022-10-16T14:30:27;25.80;44.40
50690;DHT22;54375;48.298;11.238;2022-10-16T14:33:33;26.00;43.90
50690;DHT22;54375;48.298;11.238;2022-10-16T14:36:34;26.00;42.80
50690;DHT22;54375;48.298;11.238;2022-10-16T14:39:35;25.90;42.90
50690;DHT22;54375;48.298;11.238;2022-10-16T14:42:36;25.60;43.70
50690;DHT22;54375;48.298;11.238;2022-10-16T14:45:37;25.30;44.70
50690;DHT22;54375;48.298;11.238;2022-10-16T14:48:41;25.00;45.20
50690;DHT22;54375;48.298;11.238;2022-10-16T14:51:42;24.70;45.50
50690;DHT22;54375;48.298;11.238;2022-10-16T14:54:46;24.50;45.80
50690;DHT22;54375;48.298;11.238;2022-10-16T14:57:48;24.40;46.60
50690;DHT22;54375;48.298;11.238;2022-10-16T15:00:49;24.20;47.10
50690;DHT22;54375;48.298;11.238;2022-10-16T15:03:51;24.10;48.80
50690;DHT22;54375;48.298;11.238;2022-10-16T15:06:52;24.10;50.20
50690;DHT22;54375;48.298;11.238;2022-10-16T15:09:52;24.00;50.60
50690;DHT22;54375;48.298;11.238;2022-10-16T15:12:54;23.90;51.10
50690;DHT22;54375;48.298;11.238;2022-10-16T15:15:55;23.80;51.20
50690;DHT22;54375;48.298;11.238;2022-10-16T15:18:57;23.80;51.10
50690;DHT22;54375;48.298;11.238;2022-10-16T15:21:58;23.70;51.00
50690;DHT22;54375;48.298;11.238;2022-10-16T15:24:58;23.70;51.40
50690;DHT22;54375;48.298;11.238;2022-10-16T15:28:00;23.80;52.00
50690;DHT22;54375;48.298;11.238;2022-10-16T15:31:01;23.70;51.90
50690;DHT22;54375;48.298;11.238;2022-10-16T15:34:08;23.60;53.20
50690;DHT22;54375;48.298;11.238;2022-10-16T15:37:09;23.50;56.10
50690;DHT22;54375;48.298;11.238;2022-10-16T15:40:10;23.30;57.90
50690;DHT22;54375;48.298;11.238;2022-10-16T15:43:11;23.20;58.40
50690;DHT22;54375;48.298;11.238;2022-10-16T15:46:17;23.00;59.30
50690;DHT22;54375;48.298;11.238;2022-10-16T15:49:19;22.80;59.10
50690;DHT22;54375;48.298;11.238;2022-10-16T15:52:20;22.60;61.00
50690;DHT22;54375;48.298;11.238;2022-10-16T15:55:21;22.30;62.60
50690;DHT22;54375;48.298;11.238;2022-10-16T15:58:21;22.10;65.20
50690;DHT22;54375;48.298;11.238;2022-10-16T16:01:22;22.00;65.90
50690;DHT22;54375;48.298;11.238;2022-10-16T16:04:24;21.90;67.30
50690;DHT22;54375;48.298;11.238;2022-10-16T16:07:25;21.60;68.60
50690;DHT22;54375;48.298;11.238;2022-10-16T16:10:26;21.40;69.00
50690;DHT22;54375;48.298;11.238;2022-10-16T16:13:27;21.20;69.30
50690;DHT22;54375;48.298;11.238;2022-10-16T16:16:27;20.90;69.60
50690;DHT22;54375;48.298;11.238;2022-10-16T16:19:30;20.80;69.60
50690;DHT22;54375;48.298;11.238;2022-10-16T16:22:30;20.60;69.50
50690;DHT22;54375;48.298;11.238;2022-10-16T16:25:31;20.40;69.70
50690;DHT22;54375;48.298;11.238;2022-10-16T16:28:32;20.20;70.10
50690;DHT22;54375;48.298;11.238;2022-10-16T16:31:33;20.10;71.00
50690;DHT22;54375;48.298;11.238;2022-10-16T16:34:35;19.90;71.50
50690;DHT22;54375;48.298;11.238;2022-10-16T16:37:36;19.70;71.50
50690;DHT22;54375;48.298;11.238;2022-10-16T16:40:37;19.60;71.90
50690;DHT22;54375;48.298;11.238;2022-10-16T16:43:38;19.40;72.40
50690;DHT22;54375;48.298;11.238;2022-10-16T16:46:38;19.30;72.90
50690;DHT22;54375;48.298;11.238;2022-10-16T16:49:41;19.10;73.70
50690;DHT22;54375;48.298;11.238;2022-10-16T16:52:41;19.00;74.70
50690;DHT22;54375;48.298;11.238;2022-10-16T16:55:42;18.80;74.20
50690;DHT22;54375;48.298;11.238;2022-10-16T16:58:45;18.70;74.60
50690;DHT22;54375;48.298;11.238;2022-10-16T17:01:46;18.50;75.00
50690;DHT22;54375;48.298;11.238;2022-10-16T17:04:48;18.30;75.50
50690;DHT22;54375;48.298;11.238;2022-10-16T17:07:49;18.20;76.10
50690;DHT22;54375;48.298;11.238;2022-10-16T17:10:50;18.10;76.50
50690;DHT22;54375;48.298;11.238;2022-10-16T17:13:51;18.00;76.70
50690;DHT22;54375;48.298;11.238;2022-10-16T17:16:52;17.90;77.00
50690;DHT22;54375;48.298;11.238;2022-10-16T17:19:54;17.80;77.30
50690;DHT22;54375;48.298;11.238;2022-10-16T17:22:55;17.70;77.10
50690;DHT22;54375;48.298;11.238;2022-10-16T17:25:56;17.60;77.40
50690;DHT22;54375;48.298;11.238;2022-10-16T17:28:59;17.50;77.80
50690;DHT22;54375;48.298;11.238;2022-10-16T17:32:00;17.40;78.00
50690;DHT22;54375;48.298;11.238;2022-10-16T17:35:02;17.30;78.40
50690;DHT22;54375;48.298;11.238;2022-10-16T17:38:03;17.20;78.50
50690;DHT22;54375;48.298;11.238;2022-10-16T17:41:11;17.10;78.80
50690;DHT22;54375;48.298;11.238;2022-10-16T17:44:12;17.00;79.10
50690;DHT22;54375;48.298;11.238;2022-10-16T17:47:13;16.80;79.40
50690;DHT22;54375;48.298;11.238;2022-10-16T17:50:15;16.70;79.60
50690;DHT22;54375;48.298;11.238;2022-10-16T17:53:16;16.60;80.10
50690;DHT22;54375;48.298;11.238;2022-10-16T17:56:17;16.50;80.40
50690;DHT22;54375;48.298;11.238;2022-10-16T17:59:18;16.40;81.20
50690;DHT22;54375;48.298;11.238;2022-10-16T18:02:19;16.30;80.40
50690;DHT22;54375;48.298;11.238;2022-10-16T18:05:21;16.20;80.20
50690;DHT22;54375;48.298;11.238;2022-10-16T18:08:22;16.10;80.50
50690;DHT22;54375;48.298;11.238;2022-10-16T18:11:23;16.00;80.50
50690;DHT22;54375;48.298;11.238;2022-10-16T18:14:25;15.90;81.00
50690;DHT22;54375;48.298;11.238;2022-10-16T18:17:27;15.80;82.20
50690;DHT22;54375;48.298;11.238;2022-10-16T18:20:29;15.70;83.20
50690;DHT22;54375;48.298;11.238;2022-10-16T18:23:33;15.60;83.20
50690;DHT22;54375;48.298;11.238;2022-10-16T18:26:34;15.50;83.10
50690;DHT22;54375;48.298;11.238;2022-10-16T18:29:34;15.50;83.10
50690;DHT22;54375;48.298;11.238;2022-10-16T18:32:36;15.40;84.10
50690;DHT22;54375;48.298;11.238;2022-10-16T18:35:38;15.30;85.00
50690;DHT22;54375;48.298;11.238;2022-10-16T18:38:39;15.20;85.40
50690;DHT22;54375;48.298;11.238;2022-10-16T18:41:42;15.20;85.90
50690;DHT22;54375;48.298;11.238;2022-10-16T18:44:43;15.10;86.30
50690;DHT22;54375;48.298;11.238;2022-10-16T18:47:43;15.10;86.70
50690;DHT22;54375;48.298;11.238;2022-10-16T18:50:46;15.00;87.00
50690;DHT22;54375;48.298;11.238;2022-10-16T18:53:48;14.90;87.40
50690;DHT22;54375;48.298;11.238;2022-10-16T18:56:50;14.90;87.70
50690;DHT22;54375;48.298;11.238;2022-10-16T18:59:51;14.80;88.10
50690;DHT22;54375;48.298;11.238;2022-10-16T19:02:52;14.70;88.80
50690;DHT22;54375;48.298;11.238;2022-10-16T19:05:54;14.70;88.70
50690;DHT22;54375;48.298;11.238;2022-10-16T19:08:58;14.60;89.00